createdAt,value
2023-05-22T00:02:10.149Z,11.85
2023-05-22T00:04:37.149Z,10.57
2023-05-22T00:07:04.273Z,11.75
2023-05-22T00:09:32.226Z,12.02
2023-05-22T00:11:59.280Z,11.35
2023-05-22T00:14:26.317Z,12.35
2023-05-22T00:16:53.757Z,10.73
2023-05-22T00:19:23.216Z,11.15
2023-05-22T00:21:51.513Z,11.32
2023-05-22T00:24:18.613Z,11.20
2023-05-22T00:26:46.604Z,11.15
2023-05-22T00:29:13.631Z,11.02
2023-05-22T00:31:40.865Z,11.77
2023-05-22T00:34:07.955Z,11.55
2023-05-22T00:36:37.135Z,10.77
2023-05-22T00:39:05.213Z,11.60
2023-05-22T00:41:36.404Z,11.48
2023-05-22T00:44:03.475Z,11.23
2023-05-22T00:46:31.464Z,11.88
2023-05-22T00:48:58.518Z,12.13
2023-05-22T00:51:27.054Z,11.93
2023-05-22T00:53:54.774Z,12.60
2023-05-22T00:56:22.690Z,13.40
2023-05-22T00:58:50.257Z,12.68
2023-05-22T01:01:17.990Z,13.80
2023-05-22T01:03:46.294Z,12.55
2023-05-22T01:06:18.692Z,12.65
2023-05-22T01:08:45.854Z,13.88
2023-05-22T01:11:25.511Z,13.10
2023-05-22T01:14:04.787Z,13.13
2023-05-22T01:16:37.438Z,12.93
2023-05-22T01:19:42.199Z,12.73
2023-05-22T01:22:50.158Z,12.95
2023-05-22T01:25:31.725Z,13.52
2023-05-22T01:28:19.024Z,13.43
2023-05-22T01:30:51.932Z,13.85
2023-05-22T01:33:21.737Z,15.45
2023-05-22T01:35:54.166Z,14.95
2023-05-22T01:38:22.082Z,14.73
2023-05-22T01:40:49.576Z,14.85
2023-05-22T01:43:17.901Z,15.38
2023-05-22T01:45:46.149Z,15.55
2023-05-22T01:48:13.208Z,16.25
2023-05-22T01:50:41.985Z,16.23
2023-05-22T01:53:45.455Z,17.77
2023-05-22T01:56:30.735Z,16.65
2023-05-22T01:59:07.805Z,17.55
2023-05-22T02:01:39.023Z,16.45
2023-05-22T02:04:07.136Z,17.63
2023-05-22T02:06:36.328Z,18.15
2023-05-22T02:09:03.565Z,20.00
2023-05-22T02:11:34.678Z,19.52
2023-05-22T02:14:02.347Z,22.17
2023-05-22T02:16:30.368Z,21.02
2023-05-22T02:19:07.912Z,22.25
2023-05-22T02:21:36.272Z,22.63
2023-05-22T02:24:03.689Z,23.52
2023-05-22T02:26:31.718Z,24.45
2023-05-22T02:28:59.904Z,26.20
2023-05-22T02:31:27.165Z,27.67
2023-05-22T02:33:54.594Z,26.73
2023-05-22T02:36:21.643Z,27.08
2023-05-22T02:38:48.731Z,27.20
2023-05-22T02:41:15.912Z,29.13
2023-05-22T02:43:43.726Z,26.38
2023-05-22T02:46:12.212Z,27.13
2023-05-22T02:48:39.669Z,29.58
2023-05-22T02:51:07.281Z,29.70
2023-05-22T02:53:40.384Z,29.40
2023-05-22T02:56:08.721Z,30.08
2023-05-22T02:58:36.010Z,30.27
2023-05-22T03:01:03.662Z,28.58
2023-05-22T03:03:32.161Z,29.13
2023-05-22T03:05:59.512Z,29.60
2023-05-22T03:08:28.364Z,30.13
2023-05-22T03:10:58.300Z,30.63
2023-05-22T03:13:25.762Z,30.45
2023-05-22T03:15:53.684Z,33.13
2023-05-22T03:18:21.941Z,33.95
2023-05-22T03:20:49.632Z,32.95
2023-05-22T03:23:16.930Z,35.80
2023-05-22T03:25:44.418Z,37.08
2023-05-22T03:28:11.459Z,36.42
2023-05-22T03:30:41.039Z,36.53
2023-05-22T03:33:14.011Z,40.45
2023-05-22T03:35:43.376Z,39.42
2023-05-22T03:38:11.660Z,40.65
2023-05-22T03:40:39.105Z,40.67
2023-05-22T03:43:06.753Z,43.50
2023-05-22T03:45:33.861Z,44.92
2023-05-22T03:48:02.082Z,43.50
2023-05-22T03:50:29.806Z,43.55
2023-05-22T03:52:56.959Z,47.25
2023-05-22T03:55:23.904Z,50.03
2023-05-22T03:57:51.519Z,50.03
2023-05-22T04:00:19.822Z,50.58
2023-05-22T04:02:47.082Z,49.97
2023-05-22T04:05:14.366Z,52.70
2023-05-22T04:07:41.494Z,50.65
2023-05-22T04:10:09.213Z,52.13
2023-05-22T04:12:36.388Z,51.00
2023-05-22T04:15:03.506Z,51.38
2023-05-22T04:17:34.253Z,51.00
2023-05-22T04:20:01.468Z,54.83
2023-05-22T04:22:31.050Z,54.17
2023-05-22T04:24:58.243Z,54.45
2023-05-22T04:27:26.471Z,55.15
2023-05-22T04:29:53.697Z,57.67
2023-05-22T04:32:22.074Z,58.05
2023-05-22T04:34:53.271Z,57.17
2023-05-22T04:37:20.687Z,59.40
2023-05-22T04:39:52.964Z,62.55
2023-05-22T04:42:20.636Z,62.15
2023-05-22T04:44:48.442Z,59.65
2023-05-22T04:47:15.486Z,57.80
2023-05-22T04:49:43.741Z,58.08
2023-05-22T04:52:11.750Z,57.33
2023-05-22T04:54:39.110Z,54.78
2023-05-22T04:57:07.621Z,58.50
2023-05-22T04:59:40.329Z,60.90
2023-05-22T05:02:08.727Z,61.03
2023-05-22T05:04:36.471Z,58.97
2023-05-22T05:07:05.144Z,59.90
2023-05-22T05:09:32.709Z,52.10
2023-05-22T05:12:03.340Z,58.83
2023-05-22T05:14:30.485Z,58.75
2023-05-22T05:16:58.764Z,57.95
2023-05-22T05:19:26.305Z,56.03
2023-05-22T05:21:53.369Z,58.85
2023-05-22T05:24:24.238Z,55.30
2023-05-22T05:26:52.618Z,53.83
2023-05-22T05:29:20.383Z,56.97
2023-05-22T05:31:57.379Z,54.60
2023-05-22T05:34:36.151Z,57.42
2023-05-22T05:37:05.387Z,58.03
2023-05-22T05:39:33.033Z,58.00
2023-05-22T05:42:02.810Z,57.20
2023-05-22T05:44:33.523Z,58.00
2023-05-22T05:47:02.208Z,56.20
2023-05-22T05:49:30.085Z,56.35
2023-05-22T05:51:58.061Z,57.80
2023-05-22T05:54:27.153Z,56.20
2023-05-22T05:56:57.332Z,53.17
2023-05-22T05:59:25.133Z,56.80
2023-05-22T06:02:10.705Z,56.15
2023-05-22T06:04:38.628Z,56.90
2023-05-22T06:07:08.780Z,54.40
2023-05-22T06:09:46.030Z,55.88
2023-05-22T06:12:17.020Z,53.30
2023-05-22T06:14:46.427Z,55.35
2023-05-22T06:17:15.582Z,53.67
2023-05-22T06:19:44.171Z,51.13
2023-05-22T06:22:11.453Z,53.22
2023-05-22T06:24:40.845Z,50.50
2023-05-22T06:27:13.562Z,54.17
2023-05-22T06:29:43.652Z,51.70
2023-05-22T06:32:12.637Z,48.78
2023-05-22T06:34:44.388Z,45.78
2023-05-22T06:37:12.841Z,44.20
2023-05-22T06:39:42.974Z,45.58
2023-05-22T06:42:13.930Z,45.20
2023-05-22T06:45:00.222Z,39.55
2023-05-22T06:47:37.116Z,34.15
2023-05-22T06:50:07.133Z,34.65
2023-05-22T06:52:34.841Z,35.35
2023-05-22T06:55:05.797Z,38.67
2023-05-22T06:57:44.256Z,43.65
2023-05-22T07:00:13.247Z,44.45
2023-05-22T07:03:18.487Z,42.05
2023-05-22T07:06:06.928Z,43.33
2023-05-22T07:08:35.191Z,45.40
2023-05-22T07:11:07.913Z,43.72
2023-05-22T07:13:37.179Z,45.17
2023-05-22T07:16:04.313Z,44.35
2023-05-22T07:18:32.784Z,42.58
2023-05-22T07:21:01.671Z,40.80
2023-05-22T07:23:30.470Z,42.33
2023-05-22T07:25:57.985Z,42.15
2023-05-22T07:28:31.321Z,41.42
2023-05-22T07:31:08.016Z,40.70
2023-05-22T07:33:35.369Z,41.40
2023-05-22T07:36:03.529Z,40.15
2023-05-22T07:38:31.044Z,37.22
2023-05-22T07:41:02.975Z,36.25
2023-05-22T07:43:31.706Z,36.85
2023-05-22T07:46:12.640Z,38.38
2023-05-22T07:48:50.453Z,43.08
2023-05-22T07:51:17.773Z,39.33
2023-05-22T07:53:48.124Z,40.00
2023-05-22T07:56:15.251Z,40.67
2023-05-22T07:58:42.388Z,39.22
2023-05-22T08:01:09.923Z,39.70
2023-05-22T08:03:37.299Z,41.92
2023-05-22T08:06:05.711Z,39.97
2023-05-22T08:08:34.000Z,42.42
2023-05-22T08:11:04.419Z,41.75
2023-05-22T08:13:33.199Z,44.45
2023-05-22T08:16:04.798Z,43.45
2023-05-22T08:18:31.819Z,42.08
2023-05-22T08:21:00.373Z,42.63
2023-05-22T08:23:27.464Z,41.92
2023-05-22T08:25:54.510Z,43.13
2023-05-22T08:28:21.677Z,40.00
2023-05-22T08:30:48.735Z,37.80
2023-05-22T08:33:17.035Z,35.25
2023-05-22T08:35:46.858Z,37.40
2023-05-22T08:38:15.124Z,33.17
2023-05-22T08:40:46.406Z,37.67
2023-05-22T08:43:13.737Z,36.43
2023-05-22T08:45:43.987Z,35.95
2023-05-22T08:48:14.333Z,36.25
2023-05-22T08:50:43.606Z,36.63
2023-05-22T08:53:13.610Z,37.92
2023-05-22T08:55:41.446Z,37.20
2023-05-22T08:58:10.954Z,36.90
2023-05-22T09:00:41.902Z,37.70
2023-05-22T09:03:13.990Z,36.67
2023-05-22T09:05:43.201Z,36.67
2023-05-22T09:08:19.767Z,38.35
2023-05-22T09:10:48.296Z,37.25
2023-05-22T09:13:30.251Z,39.63
2023-05-22T09:16:08.198Z,38.65
2023-05-22T09:18:37.466Z,38.95
2023-05-22T09:21:11.298Z,39.05
2023-05-22T09:23:42.469Z,43.05
2023-05-22T09:26:10.109Z,39.92
2023-05-22T09:28:38.223Z,42.30
2023-05-22T09:31:06.474Z,41.17
2023-05-22T09:33:34.718Z,45.22
2023-05-22T09:36:07.877Z,41.65
2023-05-22T09:38:35.028Z,43.42
2023-05-22T09:41:03.652Z,42.83
2023-05-22T09:43:31.329Z,42.97
2023-05-22T09:46:02.506Z,43.45
2023-05-22T09:48:33.790Z,44.55
2023-05-22T09:51:01.907Z,44.30
2023-05-22T09:53:30.092Z,43.45
2023-05-22T09:56:00.160Z,43.17
2023-05-22T09:58:31.465Z,41.60
2023-05-22T10:00:59.629Z,41.45
2023-05-22T10:03:27.516Z,40.90
2023-05-22T10:05:58.743Z,43.25
2023-05-22T10:08:29.486Z,44.45
2023-05-22T10:10:59.723Z,42.75
2023-05-22T10:13:28.061Z,43.78
2023-05-22T10:15:57.063Z,43.53
2023-05-22T10:18:25.865Z,45.00
2023-05-22T10:20:53.763Z,43.08
2023-05-22T10:23:22.909Z,44.20
2023-05-22T10:25:50.803Z,41.95
2023-05-22T10:28:27.687Z,41.97
2023-05-22T10:31:38.894Z,41.85
2023-05-22T10:34:47.848Z,38.67
2023-05-22T10:37:21.735Z,42.50
2023-05-22T10:40:05.304Z,38.08
2023-05-22T10:42:32.799Z,41.90
2023-05-22T10:45:04.569Z,39.88
2023-05-22T10:47:34.270Z,38.88
2023-05-22T10:50:09.836Z,39.40
2023-05-22T10:52:38.939Z,35.97
2023-05-22T10:55:10.525Z,35.03
2023-05-22T10:57:39.598Z,34.83
2023-05-22T11:00:15.957Z,33.33
2023-05-22T11:02:46.893Z,33.22
2023-05-22T11:05:25.501Z,34.95
2023-05-22T11:07:52.580Z,33.58
2023-05-22T11:10:52.913Z,34.42
2023-05-22T11:13:20.419Z,34.08
2023-05-22T11:15:48.514Z,33.00
2023-05-22T11:18:17.163Z,34.85
2023-05-22T11:20:45.055Z,31.65
2023-05-22T11:23:12.372Z,32.58
2023-05-22T11:25:41.449Z,33.42
2023-05-22T11:28:10.785Z,31.65
2023-05-22T11:30:38.975Z,30.33
2023-05-22T11:33:08.836Z,31.80
2023-05-22T11:35:36.304Z,29.85
2023-05-22T11:38:07.270Z,29.77
2023-05-22T11:40:34.651Z,30.88
2023-05-22T11:43:02.605Z,31.27
2023-05-22T11:45:29.633Z,32.78
2023-05-22T11:47:57.584Z,32.20
2023-05-22T11:50:40.095Z,35.33
2023-05-22T11:53:08.640Z,31.63
2023-05-22T11:55:35.890Z,35.03
2023-05-22T11:58:03.029Z,35.05
2023-05-22T12:00:31.962Z,31.95
2023-05-22T12:02:59.456Z,31.58
2023-05-22T12:05:26.671Z,29.80
2023-05-22T12:07:53.850Z,29.35
2023-05-22T12:10:22.416Z,27.55
2023-05-22T12:12:49.729Z,28.63
2023-05-22T12:15:21.155Z,30.17
2023-05-22T12:17:48.788Z,29.13
2023-05-22T12:24:56.038Z,30.83
2023-05-22T12:27:23.195Z,31.00
2023-05-22T12:46:38.583Z,28.85
2023-05-22T12:49:06.012Z,30.58
2023-05-22T12:51:33.061Z,29.25
2023-05-22T12:54:01.734Z,31.80
2023-05-22T12:56:30.474Z,31.67
2023-05-22T12:58:58.562Z,33.05
2023-05-22T13:01:26.339Z,32.38
2023-05-22T13:03:53.488Z,34.13
2023-05-22T13:06:21.034Z,39.53
2023-05-22T13:08:48.080Z,41.50
2023-05-22T13:11:15.104Z,41.08
2023-05-22T13:13:42.092Z,46.83
2023-05-22T13:16:10.682Z,41.67
2023-05-22T13:18:37.932Z,41.50
2023-05-22T13:21:05.096Z,46.90
2023-05-22T13:23:32.196Z,47.10
2023-05-22T13:26:01.986Z,49.85
2023-05-22T13:28:29.232Z,51.88
2023-05-22T13:30:56.655Z,50.75
2023-05-22T13:33:23.647Z,51.50
2023-05-22T13:35:50.681Z,48.17
2023-05-22T13:38:17.632Z,46.90
2023-05-22T13:40:46.185Z,44.40
2023-05-22T13:43:14.700Z,43.22
2023-05-22T13:45:42.018Z,42.70
2023-05-22T13:48:11.439Z,41.67
2023-05-22T13:50:38.502Z,40.78
2023-05-22T13:53:05.558Z,38.05
2023-05-22T13:55:32.550Z,43.10
2023-05-22T13:57:59.612Z,40.67
2023-05-22T14:00:27.051Z,40.67
2023-05-22T14:02:54.126Z,41.08
2023-05-22T14:05:23.866Z,44.13
2023-05-22T14:07:51.339Z,42.38
2023-05-22T14:10:18.498Z,43.75
2023-05-22T14:12:45.621Z,44.55
2023-05-22T14:15:16.103Z,43.17
2023-05-22T14:17:43.389Z,41.78
2023-05-22T14:20:11.054Z,43.45
2023-05-22T14:22:56.067Z,44.45
2023-05-22T14:25:25.811Z,42.63
2023-05-22T14:27:52.950Z,42.10
2023-05-22T14:30:20.122Z,41.03
2023-05-22T14:32:48.192Z,39.67
2023-05-22T14:35:16.852Z,38.92
2023-05-22T14:37:44.639Z,41.15
2023-05-22T14:40:14.316Z,38.50
2023-05-22T14:42:43.385Z,38.15
2023-05-22T14:45:10.804Z,38.90
2023-05-22T14:47:38.292Z,38.80
2023-05-22T14:50:18.248Z,36.83
2023-05-22T14:52:46.496Z,38.70
2023-05-22T14:55:13.562Z,39.83
2023-05-22T14:57:40.591Z,38.17
2023-05-22T15:00:12.256Z,36.90
2023-05-22T15:02:39.856Z,36.13
2023-05-22T15:05:07.430Z,36.97
2023-05-22T15:10:05.975Z,35.22
2023-05-22T15:12:33.419Z,33.42
2023-05-22T15:15:01.894Z,34.45
2023-05-22T15:17:29.926Z,34.13
2023-05-22T15:19:57.094Z,31.33
2023-05-22T15:22:24.096Z,31.55
2023-05-22T15:25:07.001Z,34.58
2023-05-22T15:27:35.675Z,36.05
2023-05-22T15:30:04.560Z,35.10
2023-05-22T15:32:36.369Z,33.88
2023-05-22T15:35:05.660Z,36.53
2023-05-22T15:37:34.010Z,36.33
2023-05-22T15:40:06.089Z,33.83
2023-05-22T15:42:35.454Z,35.10
2023-05-22T15:45:02.866Z,37.47
2023-05-22T15:47:31.344Z,37.42
2023-05-22T15:49:58.468Z,36.10
2023-05-22T15:52:26.869Z,36.63
2023-05-22T15:54:56.387Z,36.75
2023-05-22T15:57:24.246Z,35.80
2023-05-22T15:59:51.281Z,35.33
2023-05-22T16:02:19.043Z,36.90
2023-05-22T16:04:46.318Z,36.05
2023-05-22T16:07:13.396Z,36.53
2023-05-22T16:09:41.936Z,34.22
2023-05-22T16:12:11.649Z,34.53
2023-05-22T16:14:40.070Z,35.45
2023-05-22T16:17:07.899Z,33.35
2023-05-22T16:19:35.163Z,30.77
2023-05-22T16:22:03.808Z,31.40
2023-05-22T16:24:31.703Z,30.92
2023-05-22T16:27:00.003Z,29.35
2023-05-22T16:29:27.078Z,28.48
2023-05-22T16:31:54.307Z,29.15
2023-05-22T16:34:22.793Z,25.90
2023-05-22T16:36:49.834Z,26.77
2023-05-22T16:39:16.954Z,24.65
2023-05-22T16:41:44.141Z,24.55
2023-05-22T16:44:11.226Z,27.60
2023-05-22T16:46:42.480Z,25.92
2023-05-22T16:49:09.660Z,26.75
2023-05-22T16:51:36.932Z,24.20
2023-05-22T16:54:04.077Z,23.90
2023-05-22T16:56:34.189Z,23.52
2023-05-22T16:59:02.056Z,23.85
2023-05-22T17:01:29.439Z,23.70
2023-05-22T17:03:56.581Z,21.95
2023-05-22T17:06:23.686Z,22.45
2023-05-22T17:08:52.567Z,19.98
2023-05-22T17:11:19.680Z,21.33
2023-05-22T17:13:46.675Z,21.52
2023-05-22T17:16:13.849Z,20.70
2023-05-22T17:18:40.865Z,20.77
2023-05-22T17:21:09.389Z,22.08
2023-05-22T17:23:37.405Z,20.70
2023-05-22T17:26:04.874Z,21.85
2023-05-22T17:28:32.134Z,20.02
2023-05-22T17:30:59.301Z,19.92
2023-05-22T17:33:27.204Z,18.35
2023-05-22T17:35:54.346Z,19.48
2023-05-22T17:38:22.260Z,18.90
2023-05-22T17:40:49.526Z,18.77
2023-05-22T17:43:19.085Z,20.15
2023-05-22T17:45:53.257Z,19.60
2023-05-22T17:48:27.262Z,20.63
2023-05-22T17:50:54.526Z,19.30
2023-05-22T17:53:21.598Z,22.13
2023-05-22T17:55:51.062Z,23.40
2023-05-22T17:58:19.861Z,23.45
2023-05-22T18:00:48.845Z,23.90
2023-05-22T18:03:20.222Z,21.38
2023-05-22T18:05:48.863Z,23.02
2023-05-22T18:08:16.134Z,23.13
2023-05-22T18:10:43.563Z,23.38
2023-05-22T18:13:11.432Z,22.52
2023-05-22T18:15:38.558Z,22.55
2023-05-22T18:18:05.832Z,23.10
2023-05-22T18:20:37.763Z,22.13
2023-05-22T18:23:04.921Z,21.88
2023-05-22T18:25:31.966Z,22.60
2023-05-22T18:28:00.190Z,21.92
2023-05-22T18:30:27.198Z,23.10
2023-05-22T18:32:54.262Z,25.23
2023-05-22T18:35:21.464Z,22.70
2023-05-22T18:37:48.618Z,25.60
2023-05-22T18:40:16.137Z,25.15
2023-05-22T18:42:43.884Z,24.90
2023-05-22T18:45:14.381Z,25.40
2023-05-22T18:47:41.715Z,24.38
2023-05-22T18:50:09.255Z,25.65
2023-05-22T18:52:36.492Z,26.65
2023-05-22T18:55:05.075Z,25.73
2023-05-22T18:57:36.079Z,26.77
2023-05-22T19:00:03.724Z,27.25
2023-05-22T19:02:33.422Z,26.15
2023-05-22T19:05:00.575Z,26.73
2023-05-22T19:07:27.801Z,26.17
2023-05-22T19:09:54.772Z,26.75
2023-05-22T19:12:22.811Z,27.83
2023-05-22T19:14:57.675Z,27.23
2023-05-22T19:17:24.700Z,28.27
2023-05-22T19:19:51.776Z,27.85
2023-05-22T19:22:20.147Z,28.20
2023-05-22T19:24:48.367Z,27.15
2023-05-22T19:27:17.905Z,29.08
2023-05-22T19:29:44.976Z,28.20
2023-05-22T19:32:12.206Z,29.05
2023-05-22T19:34:39.525Z,30.23
2023-05-22T19:37:08.655Z,28.73
2023-05-22T19:39:35.747Z,29.30
2023-05-22T19:42:02.751Z,31.67
2023-05-22T19:44:29.797Z,31.85
2023-05-22T19:46:57.140Z,30.67
2023-05-22T19:49:24.175Z,29.42
2023-05-22T19:51:51.657Z,31.38
2023-05-22T19:54:19.578Z,30.42
2023-05-22T19:56:46.562Z,32.55
2023-05-22T19:59:14.895Z,29.45
2023-05-22T20:01:41.889Z,32.17
2023-05-22T20:04:10.117Z,30.13
2023-05-22T20:06:37.165Z,32.40
2023-05-22T20:09:05.857Z,33.15
2023-05-22T20:11:33.195Z,32.53
2023-05-22T20:14:02.631Z,32.10
2023-05-22T20:16:29.881Z,31.08
2023-05-22T20:18:57.996Z,33.47
2023-05-22T20:21:25.092Z,32.38
2023-05-22T20:23:52.993Z,33.10
2023-05-22T20:26:20.280Z,34.15
2023-05-22T20:28:47.346Z,31.10
2023-05-22T20:31:14.882Z,31.15
2023-05-22T20:33:41.946Z,30.50
2023-05-22T20:36:09.135Z,28.08
2023-05-22T20:38:37.202Z,30.70
2023-05-22T20:41:08.156Z,30.70
2023-05-22T20:43:39.405Z,29.98
2023-05-22T20:46:06.578Z,29.85
2023-05-22T20:48:33.585Z,30.58
2023-05-22T20:51:00.588Z,30.70
2023-05-22T20:53:27.902Z,31.48
2023-05-22T20:55:54.988Z,32.50
2023-05-22T20:58:23.245Z,28.90
2023-05-22T21:00:51.096Z,30.75
2023-05-22T21:03:18.177Z,29.65
2023-05-22T21:05:45.267Z,30.83
2023-05-22T21:08:12.227Z,28.63
2023-05-22T21:10:39.404Z,30.35
2023-05-22T21:13:08.037Z,31.05
2023-05-22T21:15:35.077Z,29.17
2023-05-22T21:18:02.197Z,28.63
2023-05-22T21:20:30.508Z,30.98
2023-05-22T21:22:57.588Z,29.08
2023-05-22T21:25:25.442Z,30.83
2023-05-22T21:27:54.548Z,29.95
2023-05-22T21:30:23.479Z,30.75
2023-05-22T21:32:50.612Z,28.63
2023-05-22T21:35:17.674Z,31.50
2023-05-22T21:37:46.293Z,29.83
2023-05-22T21:40:13.496Z,29.88
2023-05-22T21:42:46.292Z,29.05
2023-05-22T21:45:14.515Z,28.85
2023-05-22T21:47:41.863Z,28.77
2023-05-22T21:50:09.302Z,29.23
2023-05-22T21:52:36.510Z,27.98
2023-05-22T21:55:04.136Z,29.58
2023-05-22T21:57:31.269Z,29.50
2023-05-22T21:59:58.237Z,29.08
2023-05-22T22:02:25.301Z,27.48
2023-05-22T22:04:52.351Z,29.60
2023-05-22T22:07:19.309Z,28.40
2023-05-22T22:09:46.367Z,27.83
2023-05-22T22:12:13.347Z,28.17
2023-05-22T22:14:40.427Z,31.58
2023-05-22T22:17:08.320Z,30.40
2023-05-22T22:19:36.175Z,28.63
2023-05-22T22:22:03.482Z,29.70
2023-05-22T22:24:30.494Z,29.50
2023-05-22T22:26:58.812Z,30.08
2023-05-22T22:29:26.532Z,29.40
2023-05-22T22:31:56.558Z,29.38
2023-05-22T22:34:23.596Z,31.13
2023-05-22T22:36:50.890Z,30.23
2023-05-22T22:39:17.890Z,30.80
2023-05-22T22:41:45.887Z,32.17
2023-05-22T22:44:12.953Z,32.00
2023-05-22T22:46:40.383Z,32.30
2023-05-22T22:49:08.815Z,31.80
2023-05-22T22:51:36.786Z,30.45
2023-05-22T22:54:03.963Z,29.92
2023-05-22T22:56:31.340Z,31.17
2023-05-22T22:58:58.407Z,30.13
2023-05-22T23:01:26.915Z,30.63
2023-05-22T23:03:55.774Z,30.40
2023-05-22T23:06:24.884Z,32.58
2023-05-22T23:08:53.331Z,33.13
2023-05-22T23:11:20.352Z,33.55
2023-05-22T23:18:16.437Z,32.38
2023-05-22T23:20:43.614Z,32.22
2023-05-22T23:23:10.660Z,31.70
2023-05-22T23:25:38.097Z,32.72
2023-05-22T23:28:08.416Z,35.78
2023-05-22T23:30:35.527Z,32.80
2023-05-22T23:33:06.375Z,31.63
2023-05-22T23:35:34.589Z,34.13
2023-05-22T23:38:02.835Z,32.17
2023-05-22T23:40:29.887Z,32.92
2023-05-22T23:42:58.000Z,33.08
2023-05-22T23:45:24.994Z,35.25
2023-05-22T23:47:52.372Z,35.67
2023-05-22T23:50:19.798Z,39.88
2023-05-22T23:52:48.259Z,39.10
2023-05-22T23:55:15.740Z,39.25
2023-05-22T23:57:42.950Z,39.15
